createdAt,value
2017-07-30T00:00:52.384Z,995.7
2017-07-30T00:01:53.785Z,995.7
2017-07-30T00:02:55.183Z,995.7
2017-07-30T00:03:56.582Z,995.7
2017-07-30T00:04:57.995Z,995.7
2017-07-30T00:05:59.379Z,995.7
2017-07-30T00:07:00.782Z,995.7
2017-07-30T00:08:02.183Z,995.6
2017-07-30T00:09:03.579Z,995.6
2017-07-30T00:10:04.979Z,995.7
2017-07-30T00:11:06.377Z,995.6
2017-07-30T00:12:07.779Z,995.7
2017-07-30T00:13:09.177Z,995.6
2017-07-30T00:14:10.586Z,995.6
2017-07-30T00:15:11.988Z,995.6
2017-07-30T00:16:13.389Z,995.6
2017-07-30T00:17:14.785Z,995.6
2017-07-30T00:18:16.189Z,995.6
2017-07-30T00:19:17.585Z,995.6
2017-07-30T00:20:18.984Z,995.5
2017-07-30T00:21:20.386Z,995.5
2017-07-30T00:22:21.788Z,995.5
2017-07-30T00:23:23.193Z,995.5
2017-07-30T00:24:24.591Z,995.5
2017-07-30T00:25:25.989Z,995.5
2017-07-30T00:26:27.390Z,995.5
2017-07-30T00:27:28.788Z,995.5
2017-07-30T00:28:30.192Z,995.5
2017-07-30T00:29:31.591Z,995.5
2017-07-30T00:30:32.988Z,995.5
2017-07-30T00:31:34.388Z,995.4
2017-07-30T00:32:35.786Z,995.4
2017-07-30T00:33:37.184Z,995.5
2017-07-30T00:34:38.601Z,995.5
2017-07-30T00:35:40.005Z,995.4
2017-07-30T00:36:41.404Z,995.4
2017-07-30T00:37:42.808Z,995.4
2017-07-30T00:38:44.206Z,995.4
2017-07-30T00:39:45.604Z,995.4
2017-07-30T00:40:47.002Z,995.4
2017-07-30T00:41:48.407Z,995.3
2017-07-30T00:42:49.808Z,995.3
2017-07-30T00:43:51.203Z,995.3
2017-07-30T00:44:52.605Z,995.3
2017-07-30T00:45:54.019Z,995.3
2017-07-30T00:46:55.417Z,995.3
2017-07-30T00:47:56.823Z,995.3
2017-07-30T00:48:58.248Z,995.3
2017-07-30T00:49:59.631Z,995.2
2017-07-30T00:51:01.032Z,995.2
2017-07-30T00:52:02.431Z,995.3
2017-07-30T00:53:03.829Z,995.3
2017-07-30T00:54:05.227Z,995.2
2017-07-30T00:55:06.629Z,995.2
2017-07-30T00:56:08.031Z,995.2
2017-07-30T00:57:09.431Z,995.2
2017-07-30T00:58:10.832Z,995.2
2017-07-30T00:59:12.232Z,995.2
2017-07-30T01:00:13.635Z,995.1
2017-07-30T01:01:15.033Z,995.1
2017-07-30T01:02:16.435Z,995.0
2017-07-30T01:03:17.834Z,995.1
2017-07-30T01:04:19.234Z,995.1
2017-07-30T01:05:20.633Z,995.1
2017-07-30T01:06:22.033Z,995.0
2017-07-30T01:07:23.435Z,995.0
2017-07-30T01:08:24.836Z,995.0
2017-07-30T01:09:26.235Z,995.0
2017-07-30T01:10:27.635Z,995.0
2017-07-30T01:11:29.038Z,995.0
2017-07-30T01:12:30.436Z,995.0
2017-07-30T01:13:31.834Z,995.0
2017-07-30T01:14:33.232Z,995.0
2017-07-30T01:15:34.632Z,994.9
2017-07-30T01:16:36.033Z,994.9
2017-07-30T01:17:37.435Z,994.9
2017-07-30T01:18:38.836Z,994.9
2017-07-30T01:19:40.234Z,994.8
2017-07-30T01:20:41.633Z,994.9
2017-07-30T01:21:43.032Z,994.9
2017-07-30T01:22:44.431Z,994.8
2017-07-30T01:23:45.830Z,994.8
2017-07-30T01:24:47.230Z,994.8
2017-07-30T01:25:48.629Z,994.8
2017-07-30T01:26:50.031Z,994.8
2017-07-30T01:27:51.431Z,994.8
2017-07-30T01:28:52.826Z,994.8
2017-07-30T01:29:54.226Z,994.8
2017-07-30T01:30:55.624Z,994.8
2017-07-30T01:31:57.023Z,994.8
2017-07-30T01:32:58.419Z,994.8
2017-07-30T01:33:59.824Z,994.8
2017-07-30T01:35:01.222Z,994.8
2017-07-30T01:36:02.620Z,994.8
2017-07-30T01:37:04.023Z,994.9
2017-07-30T01:38:05.418Z,994.8
2017-07-30T01:39:06.820Z,994.8
2017-07-30T01:40:08.219Z,994.8
2017-07-30T01:41:09.621Z,994.8
2017-07-30T01:42:11.017Z,994.8
2017-07-30T01:43:12.417Z,994.8
2017-07-30T01:44:13.817Z,994.8
2017-07-30T01:45:15.218Z,994.9
2017-07-30T01:46:16.616Z,994.9
2017-07-30T01:47:18.017Z,994.9
2017-07-30T01:48:19.422Z,994.9
2017-07-30T01:49:20.820Z,994.9
2017-07-30T01:50:22.216Z,994.9
2017-07-30T01:51:23.618Z,994.8
2017-07-30T01:52:25.015Z,994.8
2017-07-30T01:53:26.416Z,994.8
2017-07-30T01:54:28.536Z,994.8
2017-07-30T01:55:29.943Z,994.7
2017-07-30T01:56:31.336Z,994.6
2017-07-30T01:57:32.733Z,994.6
2017-07-30T01:58:34.134Z,994.6
2017-07-30T01:59:35.531Z,994.6
2017-07-30T02:00:36.938Z,994.7
2017-07-30T02:01:38.336Z,994.8
2017-07-30T02:02:39.742Z,994.8
2017-07-30T02:03:41.140Z,994.8
2017-07-30T02:04:42.536Z,994.9
2017-07-30T02:05:43.936Z,994.9
2017-07-30T02:06:45.335Z,994.8
2017-07-30T02:07:46.737Z,994.8
2017-07-30T02:08:48.137Z,994.8
2017-07-30T02:09:49.538Z,994.8
2017-07-30T02:10:50.940Z,994.8
2017-07-30T02:11:52.339Z,994.8
2017-07-30T02:12:53.734Z,994.9
2017-07-30T02:13:55.135Z,994.8
2017-07-30T02:14:56.535Z,994.8
2017-07-30T02:15:57.946Z,994.8
2017-07-30T02:16:59.341Z,994.9
2017-07-30T02:18:00.737Z,994.9
2017-07-30T02:19:02.141Z,994.9
2017-07-30T02:20:03.534Z,994.9
2017-07-30T02:21:04.933Z,994.8
2017-07-30T02:22:06.336Z,994.8
2017-07-30T02:23:07.732Z,994.9
2017-07-30T02:24:09.151Z,994.9
2017-07-30T02:25:10.534Z,994.8
2017-07-30T02:26:11.935Z,994.8
2017-07-30T02:27:13.340Z,994.8
2017-07-30T02:28:14.734Z,994.7
2017-07-30T02:29:16.136Z,994.7
2017-07-30T02:30:17.537Z,994.7
2017-07-30T02:31:18.938Z,994.7
2017-07-30T02:32:20.336Z,994.7
2017-07-30T02:33:21.732Z,994.7
2017-07-30T02:34:23.137Z,994.7
2017-07-30T02:35:24.582Z,994.7
2017-07-30T02:36:25.971Z,994.6
2017-07-30T02:37:27.395Z,994.6
2017-07-30T02:38:28.799Z,994.6
2017-07-30T02:39:30.187Z,994.6
2017-07-30T02:40:31.584Z,994.6
2017-07-30T02:41:32.987Z,994.6
2017-07-30T02:42:34.383Z,994.6
2017-07-30T02:43:35.781Z,994.6
2017-07-30T02:44:37.183Z,994.6
2017-07-30T02:45:38.582Z,994.6
2017-07-30T02:46:39.981Z,994.6
2017-07-30T02:47:41.377Z,994.5
2017-07-30T02:48:42.781Z,994.5
2017-07-30T02:49:44.179Z,994.5
2017-07-30T02:50:45.579Z,994.5
2017-07-30T02:51:46.981Z,994.5
2017-07-30T02:52:48.381Z,994.4
2017-07-30T02:53:49.782Z,994.5
2017-07-30T02:54:51.180Z,994.4
2017-07-30T02:55:52.576Z,994.3
2017-07-30T02:56:53.977Z,994.3
2017-07-30T02:57:55.375Z,994.3
2017-07-30T02:58:56.778Z,994.2
2017-07-30T02:59:58.178Z,994.1
2017-07-30T03:00:59.576Z,994.1
2017-07-30T03:02:00.974Z,994.1
2017-07-30T03:03:02.373Z,994.1
2017-07-30T03:04:03.779Z,994.1
2017-07-30T03:05:05.172Z,994.1
2017-07-30T03:06:06.578Z,994.1
2017-07-30T03:07:07.978Z,994.1
2017-07-30T03:08:09.377Z,994.0
2017-07-30T03:09:10.776Z,994.0
2017-07-30T03:10:12.172Z,994.1
2017-07-30T03:11:13.577Z,994.0
2017-07-30T03:12:14.974Z,994.0
2017-07-30T03:13:16.376Z,994.1
2017-07-30T03:14:17.777Z,994.0
2017-07-30T03:15:19.176Z,994.1
2017-07-30T03:16:20.570Z,994.0
2017-07-30T03:17:21.967Z,994.0
2017-07-30T03:18:23.366Z,994.1
2017-07-30T03:19:24.771Z,994.0
2017-07-30T03:20:26.164Z,994.1
2017-07-30T03:21:27.565Z,994.0
2017-07-30T03:22:28.964Z,994.0
2017-07-30T03:23:30.365Z,994.1
2017-07-30T03:24:31.764Z,994.1
2017-07-30T03:25:33.172Z,994.1
2017-07-30T03:26:34.573Z,994.1
2017-07-30T03:27:35.980Z,994.1
2017-07-30T03:28:37.376Z,994.1
2017-07-30T03:29:38.773Z,994.1
2017-07-30T03:30:40.172Z,994.0
2017-07-30T03:31:41.571Z,994.0
2017-07-30T03:32:42.966Z,994.0
2017-07-30T03:33:44.365Z,994.0
2017-07-30T03:34:45.768Z,994.0
2017-07-30T03:35:47.167Z,994.0
2017-07-30T03:36:48.561Z,994.0
2017-07-30T03:37:49.960Z,994.0
2017-07-30T03:38:51.358Z,994.0
2017-07-30T03:39:52.762Z,994.0
2017-07-30T03:40:54.163Z,994.0
2017-07-30T03:41:55.564Z,994.0
2017-07-30T03:42:56.969Z,994.0
2017-07-30T03:43:58.364Z,994.0
2017-07-30T03:44:59.763Z,994.0
2017-07-30T03:46:01.161Z,994.0
2017-07-30T03:47:02.557Z,994.0
2017-07-30T03:48:03.973Z,994.0
2017-07-30T03:49:05.369Z,994.0
2017-07-30T03:50:06.786Z,993.9
2017-07-30T03:51:08.184Z,994.0
2017-07-30T03:52:09.583Z,993.9
2017-07-30T03:53:10.981Z,994.0
2017-07-30T03:54:12.380Z,994.0
2017-07-30T03:55:13.776Z,994.1
2017-07-30T03:56:15.180Z,994.1
2017-07-30T03:57:16.583Z,994.1
2017-07-30T03:58:17.984Z,994.0
2017-07-30T03:59:19.384Z,994.1
2017-07-30T04:00:20.783Z,994.0
2017-07-30T04:01:22.179Z,994.1
2017-07-30T04:02:23.582Z,994.1
2017-07-30T04:03:24.981Z,994.0
2017-07-30T04:04:26.384Z,994.0
2017-07-30T04:05:27.783Z,994.1
2017-07-30T04:06:29.183Z,994.1
2017-07-30T04:07:30.579Z,994.1
2017-07-30T04:08:31.977Z,994.1
2017-07-30T04:09:33.375Z,994.0
2017-07-30T04:10:34.780Z,994.1
2017-07-30T04:11:36.182Z,994.0
2017-07-30T04:12:37.582Z,994.0
2017-07-30T04:13:38.982Z,994.0
2017-07-30T04:14:40.381Z,994.0
2017-07-30T04:15:41.780Z,994.0
2017-07-30T04:16:43.182Z,994.0
2017-07-30T04:17:44.583Z,994.0
2017-07-30T04:18:45.989Z,994.0
2017-07-30T04:19:47.394Z,994.0
2017-07-30T04:20:48.788Z,994.0
2017-07-30T04:21:50.188Z,993.9
2017-07-30T04:22:51.589Z,993.9
2017-07-30T04:23:52.993Z,994.0
2017-07-30T04:24:54.403Z,994.0
2017-07-30T04:25:55.798Z,994.0
2017-07-30T04:26:57.203Z,994.0
2017-07-30T04:27:58.601Z,994.0
2017-07-30T04:29:00.001Z,994.0
2017-07-30T04:30:01.405Z,994.0
2017-07-30T04:31:02.808Z,994.0
2017-07-30T04:32:04.212Z,994.0
2017-07-30T04:33:05.618Z,994.1
2017-07-30T04:34:07.018Z,994.0
2017-07-30T04:35:08.420Z,994.0
2017-07-30T04:36:09.828Z,994.1
2017-07-30T04:37:11.231Z,994.0
2017-07-30T04:38:12.633Z,994.0
2017-07-30T04:39:14.034Z,994.1
2017-07-30T04:40:15.437Z,994.1
2017-07-30T04:41:16.838Z,994.1
2017-07-30T04:42:18.239Z,994.1
2017-07-30T04:43:19.638Z,994.1
2017-07-30T04:44:21.040Z,994.2
2017-07-30T04:45:22.442Z,994.1
2017-07-30T04:46:23.845Z,994.1
2017-07-30T04:47:25.249Z,994.1
2017-07-30T04:48:26.649Z,994.1
2017-07-30T04:49:28.053Z,994.1
2017-07-30T04:50:29.455Z,994.1
2017-07-30T04:51:30.861Z,994.2
2017-07-30T04:52:32.260Z,994.2
2017-07-30T04:53:33.671Z,994.2
2017-07-30T04:54:35.078Z,994.2
2017-07-30T04:55:36.480Z,994.1
2017-07-30T04:56:37.882Z,994.2
2017-07-30T04:57:39.283Z,994.1
2017-07-30T04:58:40.685Z,994.2
2017-07-30T04:59:42.088Z,994.1
2017-07-30T05:00:43.490Z,994.2
2017-07-30T05:01:44.910Z,994.1
2017-07-30T05:02:46.310Z,994.1
2017-07-30T05:03:47.717Z,994.1
2017-07-30T05:04:49.123Z,994.1
2017-07-30T05:05:50.524Z,994.1
2017-07-30T05:06:51.966Z,994.1
2017-07-30T05:07:53.372Z,994.1
2017-07-30T05:08:54.777Z,994.1
2017-07-30T05:09:56.177Z,994.1
2017-07-30T05:10:57.580Z,994.1
2017-07-30T05:11:58.984Z,994.1
2017-07-30T05:13:00.386Z,994.1
2017-07-30T05:14:01.788Z,994.1
2017-07-30T05:15:03.199Z,994.1
2017-07-30T05:16:04.605Z,994.1
2017-07-30T05:17:06.003Z,994.1
2017-07-30T05:18:07.404Z,994.1
2017-07-30T05:19:08.804Z,994.1
2017-07-30T05:20:10.211Z,994.1
2017-07-30T05:21:11.612Z,994.1
2017-07-30T05:22:13.022Z,994.1
2017-07-30T05:23:14.432Z,994.1
2017-07-30T05:24:15.828Z,994.1
2017-07-30T05:25:17.228Z,994.1
2017-07-30T05:26:18.629Z,994.1
2017-07-30T05:27:20.043Z,994.1
2017-07-30T05:28:21.444Z,994.1
2017-07-30T05:29:22.848Z,994.1
2017-07-30T05:30:24.251Z,994.1
2017-07-30T05:31:25.654Z,994.2
2017-07-30T05:32:27.113Z,994.1
2017-07-30T05:33:28.523Z,994.1
2017-07-30T05:34:30.083Z,994.2
2017-07-30T05:35:31.487Z,994.3
2017-07-30T05:36:32.903Z,994.2
2017-07-30T05:37:34.305Z,994.2
2017-07-30T05:38:35.707Z,994.2
2017-07-30T05:39:37.105Z,994.2
2017-07-30T05:40:38.512Z,994.2
2017-07-30T05:41:39.920Z,994.3
2017-07-30T05:42:41.451Z,994.3
2017-07-30T05:43:42.861Z,994.2
2017-07-30T05:44:44.486Z,994.3
2017-07-30T05:45:45.871Z,994.2
2017-07-30T05:46:47.286Z,994.3
2017-07-30T05:47:48.693Z,994.3
2017-07-30T05:48:50.119Z,994.2
2017-07-30T05:49:51.511Z,994.3
2017-07-30T05:50:52.922Z,994.3
2017-07-30T05:51:54.326Z,994.3
2017-07-30T05:52:55.725Z,994.3
2017-07-30T05:53:57.130Z,994.3
2017-07-30T05:54:58.533Z,994.3
2017-07-30T05:55:59.936Z,994.3
2017-07-30T05:57:01.343Z,994.3
2017-07-30T05:58:02.753Z,994.3
2017-07-30T05:59:04.194Z,994.3
2017-07-30T06:00:05.600Z,994.3
2017-07-30T06:01:07.017Z,994.3
2017-07-30T06:02:08.425Z,994.3
2017-07-30T06:03:09.838Z,994.3
2017-07-30T06:04:11.245Z,994.3
2017-07-30T06:05:12.668Z,994.3
2017-07-30T06:06:14.083Z,994.3
2017-07-30T06:07:15.497Z,994.3
2017-07-30T06:08:16.912Z,994.2
2017-07-30T06:09:18.324Z,994.3
2017-07-30T06:10:19.729Z,994.3
2017-07-30T06:11:21.138Z,994.3
2017-07-30T06:12:22.562Z,994.3
2017-07-30T06:13:24.155Z,994.3
2017-07-30T06:14:25.590Z,994.3
2017-07-30T06:15:26.995Z,994.3
2017-07-30T06:16:28.397Z,994.3
2017-07-30T06:17:29.801Z,994.5
2017-07-30T06:18:31.205Z,994.4
2017-07-30T06:19:32.628Z,994.3
2017-07-30T06:20:34.027Z,994.5
2017-07-30T06:21:35.479Z,994.3
2017-07-30T06:22:36.881Z,994.5
2017-07-30T06:23:38.282Z,994.6
2017-07-30T06:24:39.690Z,994.4
2017-07-30T06:25:41.096Z,994.4
2017-07-30T06:26:42.508Z,994.4
2017-07-30T06:27:43.915Z,994.5
2017-07-30T06:28:45.420Z,994.4
2017-07-30T06:29:46.827Z,994.4
2017-07-30T06:30:48.292Z,994.5
2017-07-30T06:31:49.700Z,994.5
2017-07-30T06:32:51.202Z,994.5
2017-07-30T06:33:52.609Z,994.5
2017-07-30T06:34:54.057Z,994.5
2017-07-30T06:35:55.463Z,994.6
2017-07-30T06:36:56.862Z,994.5
2017-07-30T06:37:58.293Z,994.5
2017-07-30T06:38:59.697Z,994.5
2017-07-30T06:40:01.101Z,994.5
2017-07-30T06:41:02.506Z,994.5
2017-07-30T06:42:03.946Z,994.5
2017-07-30T06:43:05.318Z,994.6
2017-07-30T06:44:06.719Z,994.6
2017-07-30T06:45:08.230Z,994.6
2017-07-30T06:46:09.622Z,994.6
2017-07-30T06:47:11.029Z,994.6
2017-07-30T06:48:12.435Z,994.6
2017-07-30T06:49:13.849Z,994.7
2017-07-30T06:50:15.245Z,994.7
2017-07-30T06:51:16.689Z,994.7
2017-07-30T06:52:18.100Z,994.7
2017-07-30T06:53:19.502Z,994.8
2017-07-30T06:54:20.909Z,994.8
2017-07-30T06:55:22.314Z,994.7
2017-07-30T06:56:23.722Z,994.8
2017-07-30T06:57:25.123Z,994.7
2017-07-30T06:58:26.531Z,994.8
2017-07-30T06:59:27.935Z,994.7
2017-07-30T07:00:29.335Z,994.8
2017-07-30T07:01:30.755Z,994.8
2017-07-30T07:02:32.161Z,994.8
2017-07-30T07:03:33.569Z,994.8
2017-07-30T07:04:34.980Z,994.8
2017-07-30T07:05:36.380Z,994.7
2017-07-30T07:06:37.784Z,994.8
2017-07-30T07:07:39.186Z,994.8
2017-07-30T07:08:40.594Z,994.9
2017-07-30T07:09:42.001Z,994.8
2017-07-30T07:10:43.409Z,994.9
2017-07-30T07:11:44.969Z,994.8
2017-07-30T07:12:46.370Z,994.9
2017-07-30T07:13:47.771Z,995.0
2017-07-30T07:14:49.177Z,994.9
2017-07-30T07:15:50.581Z,994.9
2017-07-30T07:16:51.987Z,994.8
2017-07-30T07:17:53.394Z,994.8
2017-07-30T07:18:54.799Z,994.9
2017-07-30T07:19:56.201Z,994.9
2017-07-30T07:20:57.605Z,994.8
2017-07-30T07:21:59.007Z,994.8
2017-07-30T07:23:00.417Z,994.8
2017-07-30T07:24:01.852Z,994.8
2017-07-30T07:25:03.269Z,994.9
2017-07-30T07:26:04.673Z,994.9
2017-07-30T07:27:06.074Z,994.8
2017-07-30T07:28:07.477Z,994.8
2017-07-30T07:29:09.578Z,994.8
2017-07-30T07:30:10.982Z,994.8
2017-07-30T07:31:12.397Z,994.7
2017-07-30T07:32:13.804Z,994.8
2017-07-30T07:33:15.206Z,994.8
2017-07-30T07:34:16.657Z,994.8
2017-07-30T07:35:18.074Z,994.9
2017-07-30T07:36:19.480Z,994.8
2017-07-30T07:37:20.879Z,994.9
2017-07-30T07:38:22.302Z,994.9
2017-07-30T07:39:24.350Z,994.8
2017-07-30T07:40:25.754Z,994.9
2017-07-30T07:41:27.156Z,994.9
2017-07-30T07:42:28.562Z,994.9
2017-07-30T07:43:29.962Z,994.9
2017-07-30T07:44:31.369Z,995.0
2017-07-30T07:45:33.395Z,994.9
2017-07-30T07:46:35.357Z,995.0
2017-07-30T07:47:36.762Z,995.0
2017-07-30T07:48:38.165Z,994.9
2017-07-30T07:49:39.568Z,995.0
2017-07-30T07:50:40.974Z,995.0
2017-07-30T07:51:42.380Z,995.1
2017-07-30T07:52:44.402Z,995.1
2017-07-30T07:53:45.803Z,995.0
2017-07-30T07:54:47.206Z,995.0
2017-07-30T07:55:48.618Z,995.0
2017-07-30T07:56:50.018Z,995.0
2017-07-30T07:57:51.420Z,995.1
2017-07-30T07:58:52.827Z,995.1
2017-07-30T07:59:54.235Z,995.1
2017-07-30T08:00:55.643Z,995.0
2017-07-30T08:01:57.048Z,995.1
2017-07-30T08:02:58.453Z,995.1
2017-07-30T08:03:59.867Z,995.0
2017-07-30T08:05:01.279Z,995.0
2017-07-30T08:06:02.689Z,995.0
2017-07-30T08:07:05.243Z,995.0
2017-07-30T08:08:06.043Z,995.0
2017-07-30T08:09:07.425Z,995.1
2017-07-30T08:10:08.843Z,995.0
2017-07-30T08:11:10.257Z,995.0
2017-07-30T08:12:11.660Z,995.1
2017-07-30T08:13:13.071Z,995.1
2017-07-30T08:14:15.499Z,995.0
2017-07-30T08:15:16.908Z,995.1
2017-07-30T08:16:18.310Z,995.0
2017-07-30T08:17:19.712Z,995.1
2017-07-30T08:18:21.116Z,995.1
2017-07-30T08:19:22.523Z,995.1
2017-07-30T08:20:23.926Z,995.1
2017-07-30T08:21:26.450Z,995.1
2017-07-30T08:22:27.859Z,995.1
2017-07-30T08:23:29.274Z,995.2
2017-07-30T08:24:30.680Z,995.2
2017-07-30T08:25:32.089Z,995.2
2017-07-30T08:26:33.525Z,995.2
2017-07-30T08:27:34.937Z,995.3
2017-07-30T08:28:37.456Z,995.2
2017-07-30T08:29:38.868Z,995.3
2017-07-30T08:30:40.269Z,995.1
2017-07-30T08:31:41.827Z,995.2
2017-07-30T08:32:43.323Z,995.2
2017-07-30T08:33:45.162Z,995.2
2017-07-30T08:34:47.147Z,995.1
2017-07-30T08:36:52.306Z,995.2
2017-07-30T08:37:54.430Z,995.2
2017-07-30T08:38:55.898Z,995.2
2017-07-30T08:39:57.318Z,995.2
2017-07-30T08:40:58.722Z,995.3
2017-07-30T08:42:00.202Z,995.2
2017-07-30T08:43:02.675Z,995.3
2017-07-30T08:44:05.040Z,995.2
2017-07-30T08:45:06.800Z,995.2
2017-07-30T08:46:08.357Z,995.2
2017-07-30T08:47:10.169Z,995.3
2017-07-30T08:48:11.579Z,995.2
2017-07-30T08:49:13.503Z,995.2
2017-07-30T08:50:15.521Z,995.1
2017-07-30T08:51:17.185Z,995.2
2017-07-30T08:52:19.058Z,995.2
2017-07-30T08:53:20.827Z,995.2
2017-07-30T08:54:22.507Z,995.2
2017-07-30T08:55:24.255Z,995.1
2017-07-30T08:56:26.155Z,995.3
2017-07-30T08:57:29.501Z,995.2
2017-07-30T08:58:31.359Z,995.3
2017-07-30T08:59:32.766Z,995.3
2017-07-30T09:00:34.490Z,995.2
2017-07-30T09:01:36.230Z,995.2
2017-07-30T09:02:37.696Z,995.2
2017-07-30T09:03:39.551Z,995.3
2017-07-30T09:04:41.807Z,995.2
2017-07-30T09:05:43.497Z,995.2
2017-07-30T09:06:45.140Z,995.2
2017-07-30T09:07:47.224Z,995.2
2017-07-30T09:08:49.502Z,995.2
2017-07-30T09:09:51.058Z,995.2
2017-07-30T09:10:52.589Z,995.3
2017-07-30T09:11:54.382Z,995.2
2017-07-30T09:12:56.329Z,995.4
2017-07-30T09:13:59.881Z,995.3
2017-07-30T09:15:01.719Z,995.2
2017-07-30T09:16:03.204Z,995.3
2017-07-30T09:17:04.609Z,995.4
2017-07-30T09:18:06.017Z,995.3
2017-07-30T09:19:08.696Z,995.3
2017-07-30T09:58:42.758Z,995.5
2017-07-30T09:59:44.162Z,995.5
2017-07-30T10:00:45.568Z,995.7
2017-07-30T10:01:46.974Z,995.5
2017-07-30T10:02:48.381Z,995.5
2017-07-30T10:03:49.785Z,995.5
2017-07-30T10:04:51.196Z,995.6
2017-07-30T10:05:52.604Z,995.5
2017-07-30T10:06:54.010Z,995.6
2017-07-30T10:07:55.416Z,995.6
2017-07-30T10:08:56.814Z,995.7
2017-07-30T10:09:58.227Z,995.7
2017-07-30T10:10:59.640Z,995.6
2017-07-30T10:12:01.043Z,995.7
2017-07-30T10:13:02.453Z,995.7
2017-07-30T10:14:03.857Z,995.7
2017-07-30T10:15:05.264Z,995.6
2017-07-30T10:16:06.670Z,995.6
2017-07-30T10:17:08.082Z,995.7
2017-07-30T10:18:09.498Z,995.6
2017-07-30T10:19:10.907Z,995.5
2017-07-30T10:20:12.319Z,995.6
2017-07-30T10:21:13.731Z,995.6
2017-07-30T10:22:15.135Z,995.7
2017-07-30T10:23:16.543Z,995.7
2017-07-30T10:24:17.951Z,995.7
2017-07-30T10:25:19.356Z,995.6
2017-07-30T10:26:20.772Z,995.6
2017-07-30T10:27:22.181Z,995.7
2017-07-30T10:28:23.587Z,995.7
2017-07-30T10:29:25.034Z,995.7
2017-07-30T10:30:26.443Z,995.7
2017-07-30T10:31:27.858Z,995.7
2017-07-30T10:32:29.261Z,995.7
2017-07-30T10:33:30.670Z,995.7
2017-07-30T10:34:32.080Z,995.8
2017-07-30T10:35:33.485Z,995.8
2017-07-30T10:36:34.891Z,995.8
2017-07-30T10:37:36.300Z,995.8
2017-07-30T10:38:37.706Z,995.9
2017-07-30T10:39:39.115Z,995.8
2017-07-30T10:40:40.522Z,995.8
2017-07-30T10:41:41.933Z,995.9
2017-07-30T10:42:43.341Z,995.9
2017-07-30T10:43:44.749Z,995.8
2017-07-30T10:44:46.784Z,995.9
2017-07-30T10:45:48.188Z,995.8
2017-07-30T10:46:49.597Z,995.9
2017-07-30T10:47:51.008Z,995.9
2017-07-30T10:48:52.419Z,995.8
2017-07-30T10:49:53.822Z,995.8
2017-07-30T10:50:55.229Z,995.9
2017-07-30T10:51:56.636Z,995.9
2017-07-30T10:52:58.045Z,995.9
2017-07-30T10:53:59.465Z,995.8
2017-07-30T10:55:00.878Z,995.9
2017-07-30T10:56:02.609Z,995.9
2017-07-30T10:57:04.392Z,995.9
2017-07-30T10:58:05.828Z,995.9
2017-07-30T10:59:07.255Z,995.9
2017-07-30T11:00:08.970Z,995.8
2017-07-30T11:01:11.038Z,995.8
2017-07-30T11:02:12.846Z,995.9
2017-07-30T11:03:14.259Z,995.9
2017-07-30T11:04:15.750Z,995.9
2017-07-30T11:05:17.131Z,996.0
2017-07-30T11:06:18.862Z,996.0
2017-07-30T11:07:20.801Z,996.0
2017-07-30T11:08:22.514Z,995.9
2017-07-30T11:09:24.019Z,995.9
2017-07-30T11:10:25.395Z,996.0
2017-07-30T11:11:26.799Z,996.0
2017-07-30T11:12:28.311Z,995.9
2017-07-30T11:13:29.914Z,996.0
2017-07-30T11:14:31.754Z,996.0
2017-07-30T11:15:33.643Z,996.0
2017-07-30T11:16:35.565Z,996.1
2017-07-30T11:17:37.162Z,996.2
2017-07-30T11:18:38.606Z,996.1
2017-07-30T11:19:40.220Z,996.1
2017-07-30T11:20:42.059Z,996.3
2017-07-30T11:21:43.567Z,996.2
2017-07-30T11:22:44.968Z,996.2
2017-07-30T11:23:46.470Z,996.4
2017-07-30T11:24:48.168Z,996.3
2017-07-30T11:25:49.847Z,996.1
2017-07-30T11:26:51.561Z,996.3
2017-07-30T11:27:52.970Z,996.2
2017-07-30T11:28:54.376Z,996.5
2017-07-30T11:29:55.967Z,996.4
2017-07-30T11:30:57.808Z,996.2
2017-07-30T11:31:59.689Z,996.5
2017-07-30T11:33:01.637Z,996.3
2017-07-30T11:34:03.046Z,996.4
2017-07-30T11:35:04.608Z,996.3
2017-07-30T11:36:06.233Z,996.3
2017-07-30T11:37:07.798Z,996.4
2017-07-30T11:38:09.530Z,996.5
2017-07-30T11:39:10.958Z,996.5
2017-07-30T11:40:12.409Z,996.4
2017-07-30T11:41:14.006Z,996.6
2017-07-30T11:42:15.603Z,996.5
2017-07-30T11:43:17.185Z,996.5
2017-07-30T11:44:18.793Z,996.5
2017-07-30T11:45:20.104Z,996.4
2017-07-30T11:46:21.841Z,996.5
2017-07-30T11:47:25.309Z,996.5
2017-07-30T11:48:26.714Z,996.5
2017-07-30T11:49:28.123Z,996.3
2017-07-30T11:50:29.645Z,996.6
2017-07-30T11:51:31.170Z,996.5
2017-07-30T11:52:33.312Z,996.5
2017-07-30T11:53:35.056Z,996.4
2017-07-30T11:54:36.474Z,996.5
2017-07-30T11:55:37.893Z,996.5
2017-07-30T11:56:39.504Z,996.4
2017-07-30T11:57:41.251Z,996.5
2017-07-30T11:58:42.666Z,996.5
2017-07-30T11:59:44.081Z,996.5
2017-07-30T12:00:45.648Z,996.4
2017-07-30T12:01:47.634Z,996.4
2017-07-30T12:02:49.415Z,996.5
2017-07-30T12:03:51.149Z,996.5
2017-07-30T12:04:52.523Z,996.5
2017-07-30T12:05:53.933Z,996.4
2017-07-30T12:06:55.347Z,996.5
2017-07-30T12:07:56.762Z,996.5
2017-07-30T12:08:58.165Z,996.6
2017-07-30T12:09:59.572Z,996.5
2017-07-30T12:11:00.982Z,996.5
2017-07-30T12:12:02.438Z,996.5
2017-07-30T12:13:04.045Z,996.6
2017-07-30T12:14:05.525Z,996.4
2017-07-30T12:15:06.908Z,996.4
2017-07-30T12:16:08.316Z,996.5
2017-07-30T12:17:09.726Z,996.4
2017-07-30T12:18:11.136Z,996.4
2017-07-30T12:19:12.541Z,996.5
2017-07-30T12:20:13.956Z,996.5
2017-07-30T12:21:15.371Z,996.4
2017-07-30T12:22:17.133Z,996.4
2017-07-30T12:23:18.695Z,996.5
2017-07-30T12:24:20.223Z,996.5
2017-07-30T12:25:21.661Z,996.6
2017-07-30T12:26:23.190Z,996.6
2017-07-30T12:27:24.758Z,996.6
2017-07-30T12:28:26.516Z,996.6
2017-07-30T12:29:28.037Z,996.7
2017-07-30T12:30:29.461Z,996.6
2017-07-30T12:31:31.065Z,996.6
2017-07-30T12:32:32.797Z,996.5
2017-07-30T12:33:34.201Z,996.5
2017-07-30T12:34:35.610Z,996.5
2017-07-30T12:35:37.150Z,996.7
2017-07-30T12:36:38.823Z,996.5
2017-07-30T12:37:40.373Z,996.7
2017-07-30T12:38:41.868Z,996.4
2017-07-30T12:39:43.227Z,996.6
2017-07-30T12:40:44.813Z,996.7
2017-07-30T12:41:46.502Z,996.7
2017-07-30T12:42:48.094Z,996.4
2017-07-30T12:43:49.520Z,996.4
2017-07-30T12:44:51.061Z,996.6
2017-07-30T12:45:52.677Z,996.6
2017-07-30T12:46:54.136Z,996.7
2017-07-30T12:47:55.576Z,996.5
2017-07-30T12:48:57.196Z,996.5
2017-07-30T12:49:58.635Z,996.5
2017-07-30T12:51:00.204Z,996.6
2017-07-30T12:52:01.615Z,996.6
2017-07-30T12:53:03.281Z,996.7
2017-07-30T12:54:04.916Z,996.5
2017-07-30T12:55:06.589Z,996.5
2017-07-30T12:56:08.265Z,996.5
2017-07-30T12:57:09.664Z,996.5
2017-07-30T12:58:11.229Z,996.7
2017-07-30T12:59:12.810Z,996.5
2017-07-30T13:00:14.400Z,996.6
2017-07-30T13:01:15.759Z,996.6
2017-07-30T13:02:17.269Z,996.5
2017-07-30T13:03:18.662Z,996.8
2017-07-30T13:04:20.188Z,996.9
2017-07-30T13:05:22.032Z,996.8
2017-07-30T13:06:23.739Z,996.7
2017-07-30T13:07:25.473Z,996.9
2017-07-30T13:08:26.961Z,996.8
2017-07-30T13:09:28.266Z,996.8
2017-07-30T13:10:29.888Z,996.8
2017-07-30T13:11:31.508Z,996.7
2017-07-30T13:12:32.921Z,996.5
2017-07-30T13:13:34.334Z,996.8
2017-07-30T13:14:35.742Z,996.8
2017-07-30T13:15:37.196Z,996.9
2017-07-30T13:16:38.683Z,996.9
2017-07-30T13:17:40.695Z,997.0
2017-07-30T13:18:42.157Z,996.7
2017-07-30T13:19:43.571Z,996.7
2017-07-30T13:20:45.116Z,997.0
2017-07-30T13:21:46.891Z,997.0
2017-07-30T13:22:48.634Z,996.6
2017-07-30T13:23:50.071Z,996.6
2017-07-30T13:24:51.480Z,996.6
2017-07-30T13:25:53.126Z,996.7
2017-07-30T13:26:54.632Z,996.7
2017-07-30T13:27:56.037Z,997.0
2017-07-30T13:28:57.448Z,996.9
2017-07-30T13:29:58.899Z,996.7
2017-07-30T13:31:00.948Z,996.8
2017-07-30T13:32:02.811Z,996.8
2017-07-30T13:33:04.969Z,996.8
2017-07-30T13:34:06.646Z,996.9
2017-07-30T13:35:08.257Z,996.8
2017-07-30T13:36:09.633Z,996.8
2017-07-30T13:37:11.041Z,996.7
2017-07-30T13:38:12.937Z,996.7
2017-07-30T13:39:14.362Z,996.8
2017-07-30T13:40:15.770Z,996.8
2017-07-30T13:41:17.180Z,996.8
2017-07-30T13:42:19.202Z,996.9
2017-07-30T13:43:21.048Z,996.9
2017-07-30T13:44:22.994Z,996.8
2017-07-30T13:45:24.613Z,996.8
2017-07-30T13:46:26.196Z,996.7
2017-07-30T13:47:27.981Z,997.0
2017-07-30T13:48:29.392Z,997.2
2017-07-30T13:49:31.117Z,997.2
2017-07-30T13:50:32.783Z,996.8
2017-07-30T13:51:34.585Z,996.8